Aérodrome :
LOGIN :

S'inscrire | Disclaimer

   EN    FR    IT 

 










Légende :    VFR   VFR Marginal   IFR   IFR Intensif   IFR Très Intensif
Visi : 
Plafond : 
>= 8 km
>= 3000ft
5 à 8 km
1000 à 3000 ft
1500m à 5 km
500 à 1000 ft
800 à 1500m
200 à 500 ft
< 800m
< 200 ft
Symboles :   Orages  Brouillard  Fortes neiges  Fortes précipitations  Vent > 20 kt
SIGMETs :   Divers  Orages  Givrage  Turbulence  Onde Orograph.  Cendres Volcan.







- Altitude de l'aérodrome : 289 ft
- Code IATA : ZAD


LDZD - Zadar

DERNIER METAR :
  • 220430Z 09004KT 040V140 CAVOK 10/08 Q1017 NOSIG

METARs EXPIRÉS :
  • 220400Z 08004KT 040V120 CAVOK 09/08 Q1017 NOSIG
  • 220330Z 10003KT 050V160 CAVOK 08/07 Q1018 NOSIG
  • 220300Z 11003KT CAVOK 09/08 Q1018 NOSIG
  • 220230Z 10005KT CAVOK 10/09 Q1018 NOSIG
  • 220200Z 12006KT 080V140 CAVOK 10/09 Q1018 NOSIG

TAF TAF LDZD
Valide du 22 à 00h jusqu'au 23 à 00h UTC


212325Z 2200/2300 12006KT CAVOK TX20/2213Z TN10/2202Z
BECMG 2207/2209 15015KT
TEMPO 2213/2300 15020G35KT
BECMG 2221/2223 RA BKN010
PROB30
TEMPO 2222/2300 4000 SHRA BKN010 FEW025TCU
Pas de NOTAMs connus pour ce terrain.



MET'MAP, la Météo Aéronautique d'un coup d'oeil ! - Copyright ORBIFLY Décembre 2007 - Disclaimer

ORBIFLY MET'MAP TEAM :

Programmation & Développement : Alexandra Zaïnal
Conception & Développement : Baudouin d'Aumeries
Co-Programmation & Développement : Marc-Olivier Méhu
Soutien technique & logistique : Manuel Goepfert

Contact : metmap@orbifly.com




SOURCES & CREDITS :

   NOAA